sensor_id;sensor_type;location;lat;lon;timestamp;P1;durP1;ratioP1;P2;durP2;ratioP2
74291;SDS011;62687;55.738;37.516;2023-05-07T00:00:49;5.18;;;2.72;;
74291;SDS011;62687;55.738;37.516;2023-05-07T00:03:33;5.93;;;3.05;;
74291;SDS011;62687;55.738;37.516;2023-05-07T00:06:17;4.95;;;2.60;;
74291;SDS011;62687;55.738;37.516;2023-05-07T00:09:01;6.18;;;2.70;;
74291;SDS011;62687;55.738;37.516;2023-05-07T00:11:47;5.30;;;2.70;;
74291;SDS011;62687;55.738;37.516;2023-05-07T00:14:31;16.35;;;6.40;;
74291;SDS011;62687;55.738;37.516;2023-05-07T00:17:15;19.80;;;7.50;;
74291;SDS011;62687;55.738;37.516;2023-05-07T00:19:59;13.75;;;6.40;;
74291;SDS011;62687;55.738;37.516;2023-05-07T00:22:43;6.28;;;2.70;;
74291;SDS011;62687;55.738;37.516;2023-05-07T00:25:27;4.97;;;2.78;;
74291;SDS011;62687;55.738;37.516;2023-05-07T00:28:11;5.68;;;2.60;;
74291;SDS011;62687;55.738;37.516;2023-05-07T00:30:55;5.28;;;2.45;;
74291;SDS011;62687;55.738;37.516;2023-05-07T00:33:39;5.00;;;2.55;;
74291;SDS011;62687;55.738;37.516;2023-05-07T00:36:23;8.60;;;2.85;;
74291;SDS011;62687;55.738;37.516;2023-05-07T00:39:07;5.18;;;2.70;;
74291;SDS011;62687;55.738;37.516;2023-05-07T00:41:51;5.18;;;2.80;;
74291;SDS011;62687;55.738;37.516;2023-05-07T00:44:35;6.38;;;2.35;;
74291;SDS011;62687;55.738;37.516;2023-05-07T00:47:19;4.75;;;2.42;;
74291;SDS011;62687;55.738;37.516;2023-05-07T00:50:04;5.97;;;2.85;;
74291;SDS011;62687;55.738;37.516;2023-05-07T00:52:49;5.90;;;2.90;;
74291;SDS011;62687;55.738;37.516;2023-05-07T00:55:34;6.05;;;3.00;;
74291;SDS011;62687;55.738;37.516;2023-05-07T00:58:19;5.00;;;2.78;;
74291;SDS011;62687;55.738;37.516;2023-05-07T01:01:04;8.05;;;3.33;;
74291;SDS011;62687;55.738;37.516;2023-05-07T01:03:48;5.50;;;2.70;;
74291;SDS011;62687;55.738;37.516;2023-05-07T01:06:32;13.02;;;3.55;;
74291;SDS011;62687;55.738;37.516;2023-05-07T01:09:17;5.63;;;2.83;;
74291;SDS011;62687;55.738;37.516;2023-05-07T01:12:03;6.20;;;2.90;;
74291;SDS011;62687;55.738;37.516;2023-05-07T01:14:48;7.53;;;3.00;;
74291;SDS011;62687;55.738;37.516;2023-05-07T01:17:34;9.30;;;3.00;;
74291;SDS011;62687;55.738;37.516;2023-05-07T01:20:23;4.97;;;1.95;;
74291;SDS011;62687;55.738;37.516;2023-05-07T01:23:08;7.97;;;2.47;;
74291;SDS011;62687;55.738;37.516;2023-05-07T01:25:54;4.78;;;2.75;;
74291;SDS011;62687;55.738;37.516;2023-05-07T01:28:39;5.72;;;2.85;;
74291;SDS011;62687;55.738;37.516;2023-05-07T01:31:23;6.15;;;2.50;;
74291;SDS011;62687;55.738;37.516;2023-05-07T01:34:08;4.88;;;2.38;;
74291;SDS011;62687;55.738;37.516;2023-05-07T01:36:56;5.40;;;2.22;;
74291;SDS011;62687;55.738;37.516;2023-05-07T01:39:42;7.50;;;2.25;;
74291;SDS011;62687;55.738;37.516;2023-05-07T01:42:27;7.18;;;2.30;;
74291;SDS011;62687;55.738;37.516;2023-05-07T01:45:12;3.80;;;1.85;;
74291;SDS011;62687;55.738;37.516;2023-05-07T01:48:01;5.22;;;2.47;;
74291;SDS011;62687;55.738;37.516;2023-05-07T01:50:48;4.95;;;2.55;;
74291;SDS011;62687;55.738;37.516;2023-05-07T01:53:39;4.60;;;2.30;;
74291;SDS011;62687;55.738;37.516;2023-05-07T01:56:24;7.10;;;2.08;;
74291;SDS011;62687;55.738;37.516;2023-05-07T01:59:08;4.20;;;2.05;;
74291;SDS011;62687;55.738;37.516;2023-05-07T02:01:53;5.70;;;2.40;;
74291;SDS011;62687;55.738;37.516;2023-05-07T02:04:37;6.50;;;3.08;;
74291;SDS011;62687;55.738;37.516;2023-05-07T02:07:21;7.22;;;3.28;;
74291;SDS011;62687;55.738;37.516;2023-05-07T02:10:05;4.25;;;1.85;;
74291;SDS011;62687;55.738;37.516;2023-05-07T02:12:50;5.22;;;2.33;;
74291;SDS011;62687;55.738;37.516;2023-05-07T02:15:34;6.15;;;2.28;;
74291;SDS011;62687;55.738;37.516;2023-05-07T02:18:18;3.67;;;1.85;;
74291;SDS011;62687;55.738;37.516;2023-05-07T02:21:02;5.60;;;2.85;;
74291;SDS011;62687;55.738;37.516;2023-05-07T02:23:46;9.27;;;2.63;;
74291;SDS011;62687;55.738;37.516;2023-05-07T02:26:30;5.10;;;2.83;;
74291;SDS011;62687;55.738;37.516;2023-05-07T02:29:15;6.40;;;2.58;;
74291;SDS011;62687;55.738;37.516;2023-05-07T02:31:58;4.88;;;2.47;;
74291;SDS011;62687;55.738;37.516;2023-05-07T02:34:42;4.15;;;2.08;;
74291;SDS011;62687;55.738;37.516;2023-05-07T02:37:27;6.10;;;2.20;;
74291;SDS011;62687;55.738;37.516;2023-05-07T02:40:11;7.85;;;2.13;;
74291;SDS011;62687;55.738;37.516;2023-05-07T02:42:56;3.78;;;2.15;;
74291;SDS011;62687;55.738;37.516;2023-05-07T02:45:40;6.85;;;2.33;;
74291;SDS011;62687;55.738;37.516;2023-05-07T02:48:24;5.10;;;2.00;;
74291;SDS011;62687;55.738;37.516;2023-05-07T02:51:08;5.47;;;2.08;;
74291;SDS011;62687;55.738;37.516;2023-05-07T02:53:52;5.35;;;2.20;;
74291;SDS011;62687;55.738;37.516;2023-05-07T02:56:36;6.18;;;3.42;;
74291;SDS011;62687;55.738;37.516;2023-05-07T02:59:20;3.33;;;1.83;;
74291;SDS011;62687;55.738;37.516;2023-05-07T03:02:04;4.55;;;1.88;;
74291;SDS011;62687;55.738;37.516;2023-05-07T03:04:48;5.32;;;1.88;;
74291;SDS011;62687;55.738;37.516;2023-05-07T03:07:32;3.97;;;2.40;;
74291;SDS011;62687;55.738;37.516;2023-05-07T03:10:16;5.68;;;2.25;;
74291;SDS011;62687;55.738;37.516;2023-05-07T03:13:01;7.15;;;2.20;;
74291;SDS011;62687;55.738;37.516;2023-05-07T03:15:45;5.30;;;2.33;;
74291;SDS011;62687;55.738;37.516;2023-05-07T03:18:29;8.02;;;2.17;;
74291;SDS011;62687;55.738;37.516;2023-05-07T03:21:13;4.85;;;2.33;;
74291;SDS011;62687;55.738;37.516;2023-05-07T03:23:57;4.10;;;2.25;;
74291;SDS011;62687;55.738;37.516;2023-05-07T03:26:41;4.72;;;2.42;;
74291;SDS011;62687;55.738;37.516;2023-05-07T03:29:25;9.30;;;2.40;;
74291;SDS011;62687;55.738;37.516;2023-05-07T03:32:09;3.78;;;2.08;;
74291;SDS011;62687;55.738;37.516;2023-05-07T03:34:54;7.15;;;2.60;;
74291;SDS011;62687;55.738;37.516;2023-05-07T03:37:39;6.35;;;2.50;;
74291;SDS011;62687;55.738;37.516;2023-05-07T03:40:23;3.17;;;1.70;;
74291;SDS011;62687;55.738;37.516;2023-05-07T03:43:07;4.38;;;2.55;;
74291;SDS011;62687;55.738;37.516;2023-05-07T03:45:51;7.55;;;2.40;;
74291;SDS011;62687;55.738;37.516;2023-05-07T03:48:35;4.53;;;2.05;;
74291;SDS011;62687;55.738;37.516;2023-05-07T03:51:19;4.25;;;2.53;;
74291;SDS011;62687;55.738;37.516;2023-05-07T03:54:04;5.47;;;2.60;;
74291;SDS011;62687;55.738;37.516;2023-05-07T03:56:48;5.72;;;2.50;;
74291;SDS011;62687;55.738;37.516;2023-05-07T03:59:32;4.20;;;2.30;;
74291;SDS011;62687;55.738;37.516;2023-05-07T04:02:16;3.53;;;2.13;;
74291;SDS011;62687;55.738;37.516;2023-05-07T04:05:00;6.85;;;2.03;;
74291;SDS011;62687;55.738;37.516;2023-05-07T04:07:45;5.32;;;2.13;;
74291;SDS011;62687;55.738;37.516;2023-05-07T04:10:29;5.22;;;2.13;;
74291;SDS011;62687;55.738;37.516;2023-05-07T04:13:13;4.38;;;2.08;;
74291;SDS011;62687;55.738;37.516;2023-05-07T04:15:57;5.03;;;1.95;;
74291;SDS011;62687;55.738;37.516;2023-05-07T04:18:41;7.97;;;1.65;;
74291;SDS011;62687;55.738;37.516;2023-05-07T04:21:25;3.38;;;1.55;;
74291;SDS011;62687;55.738;37.516;2023-05-07T04:24:10;4.70;;;1.50;;
74291;SDS011;62687;55.738;37.516;2023-05-07T04:26:54;5.50;;;1.70;;
74291;SDS011;62687;55.738;37.516;2023-05-07T04:29:38;4.15;;;1.85;;
74291;SDS011;62687;55.738;37.516;2023-05-07T04:32:26;4.97;;;1.65;;
74291;SDS011;62687;55.738;37.516;2023-05-07T04:41:54;3.40;;;1.50;;
74291;SDS011;62687;55.738;37.516;2023-05-07T04:44:39;2.70;;;1.30;;
74291;SDS011;62687;55.738;37.516;2023-05-07T04:47:23;2.92;;;1.42;;
74291;SDS011;62687;55.738;37.516;2023-05-07T04:50:07;6.80;;;1.88;;
74291;SDS011;62687;55.738;37.516;2023-05-07T04:52:52;4.18;;;1.40;;
74291;SDS011;62687;55.738;37.516;2023-05-07T04:55:36;2.47;;;1.13;;
74291;SDS011;62687;55.738;37.516;2023-05-07T04:58:20;3.90;;;1.48;;
74291;SDS011;62687;55.738;37.516;2023-05-07T05:01:04;2.78;;;1.45;;
74291;SDS011;62687;55.738;37.516;2023-05-07T05:03:49;7.47;;;1.60;;
74291;SDS011;62687;55.738;37.516;2023-05-07T05:06:33;3.65;;;1.67;;
74291;SDS011;62687;55.738;37.516;2023-05-07T05:09:17;2.70;;;1.30;;
74291;SDS011;62687;55.738;37.516;2023-05-07T05:12:01;2.90;;;1.25;;
74291;SDS011;62687;55.738;37.516;2023-05-07T05:14:46;5.40;;;1.80;;
74291;SDS011;62687;55.738;37.516;2023-05-07T05:17:30;3.38;;;0.88;;
74291;SDS011;62687;55.738;37.516;2023-05-07T05:20:14;1.70;;;0.90;;
74291;SDS011;62687;55.738;37.516;2023-05-07T05:22:58;2.40;;;1.20;;
74291;SDS011;62687;55.738;37.516;2023-05-07T05:25:42;4.60;;;1.50;;
74291;SDS011;62687;55.738;37.516;2023-05-07T05:28:26;3.63;;;1.33;;
74291;SDS011;62687;55.738;37.516;2023-05-07T05:31:11;2.92;;;1.73;;
74291;SDS011;62687;55.738;37.516;2023-05-07T05:33:55;2.80;;;1.20;;
74291;SDS011;62687;55.738;37.516;2023-05-07T05:36:39;2.85;;;1.20;;
74291;SDS011;62687;55.738;37.516;2023-05-07T05:39:23;4.47;;;1.40;;
74291;SDS011;62687;55.738;37.516;2023-05-07T05:42:07;2.95;;;1.30;;
74291;SDS011;62687;55.738;37.516;2023-05-07T05:44:51;3.15;;;1.10;;
74291;SDS011;62687;55.738;37.516;2023-05-07T05:47:35;5.05;;;1.25;;
74291;SDS011;62687;55.738;37.516;2023-05-07T05:50:19;4.07;;;1.00;;
74291;SDS011;62687;55.738;37.516;2023-05-07T05:53:03;3.22;;;1.25;;
74291;SDS011;62687;55.738;37.516;2023-05-07T05:55:48;4.85;;;1.30;;
74291;SDS011;62687;55.738;37.516;2023-05-07T05:58:32;2.63;;;0.82;;
74291;SDS011;62687;55.738;37.516;2023-05-07T06:01:17;8.02;;;1.10;;
74291;SDS011;62687;55.738;37.516;2023-05-07T06:06:46;3.00;;;1.20;;
74291;SDS011;62687;55.738;37.516;2023-05-07T06:09:30;3.72;;;0.98;;
74291;SDS011;62687;55.738;37.516;2023-05-07T06:12:14;3.00;;;1.10;;
74291;SDS011;62687;55.738;37.516;2023-05-07T06:14:59;1.25;;;0.52;;
74291;SDS011;62687;55.738;37.516;2023-05-07T06:17:43;2.15;;;1.00;;
74291;SDS011;62687;55.738;37.516;2023-05-07T06:20:27;1.90;;;0.98;;
74291;SDS011;62687;55.738;37.516;2023-05-07T06:23:10;2.90;;;0.98;;
74291;SDS011;62687;55.738;37.516;2023-05-07T06:25:54;3.38;;;1.10;;
74291;SDS011;62687;55.738;37.516;2023-05-07T06:28:38;2.95;;;0.95;;
74291;SDS011;62687;55.738;37.516;2023-05-07T06:31:22;1.70;;;0.90;;
74291;SDS011;62687;55.738;37.516;2023-05-07T06:34:07;4.90;;;0.95;;
74291;SDS011;62687;55.738;37.516;2023-05-07T06:39:36;3.13;;;0.90;;
74291;SDS011;62687;55.738;37.516;2023-05-07T06:42:20;3.92;;;1.23;;
74291;SDS011;62687;55.738;37.516;2023-05-07T06:45:05;3.80;;;1.17;;
74291;SDS011;62687;55.738;37.516;2023-05-07T06:47:49;4.25;;;1.00;;
74291;SDS011;62687;55.738;37.516;2023-05-07T06:50:34;1.80;;;0.80;;
74291;SDS011;62687;55.738;37.516;2023-05-07T06:53:19;5.20;;;0.90;;
74291;SDS011;62687;55.738;37.516;2023-05-07T06:56:03;2.67;;;0.95;;
74291;SDS011;62687;55.738;37.516;2023-05-07T06:58:48;1.85;;;0.77;;
74291;SDS011;62687;55.738;37.516;2023-05-07T07:01:33;3.45;;;1.13;;
74291;SDS011;62687;55.738;37.516;2023-05-07T07:07:02;2.60;;;0.70;;
74291;SDS011;62687;55.738;37.516;2023-05-07T07:09:47;3.17;;;1.30;;
74291;SDS011;62687;55.738;37.516;2023-05-07T07:12:33;3.45;;;1.15;;
74291;SDS011;62687;55.738;37.516;2023-05-07T07:15:17;3.45;;;0.98;;
74291;SDS011;62687;55.738;37.516;2023-05-07T07:18:04;3.80;;;2.05;;
74291;SDS011;62687;55.738;37.516;2023-05-07T07:20:49;2.35;;;1.00;;
74291;SDS011;62687;55.738;37.516;2023-05-07T07:23:34;7.65;;;1.30;;
74291;SDS011;62687;55.738;37.516;2023-05-07T07:33:41;5.95;;;1.70;;
74291;SDS011;62687;55.738;37.516;2023-05-07T07:39:04;2.92;;;1.60;;
74291;SDS011;62687;55.738;37.516;2023-05-07T07:42:22;4.45;;;1.00;;
74291;SDS011;62687;55.738;37.516;2023-05-07T07:45:39;2.10;;;1.00;;
74291;SDS011;62687;55.738;37.516;2023-05-07T07:48:24;1.30;;;0.70;;
74291;SDS011;62687;55.738;37.516;2023-05-07T07:51:08;2.15;;;1.15;;
74291;SDS011;62687;55.738;37.516;2023-05-07T07:53:52;2.88;;;1.13;;
74291;SDS011;62687;55.738;37.516;2023-05-07T07:56:36;6.90;;;1.70;;
74291;SDS011;62687;55.738;37.516;2023-05-07T07:59:20;3.03;;;1.55;;
74291;SDS011;62687;55.738;37.516;2023-05-07T08:02:05;1.73;;;0.90;;
74291;SDS011;62687;55.738;37.516;2023-05-07T08:04:49;1.75;;;0.70;;
74291;SDS011;62687;55.738;37.516;2023-05-07T08:07:33;5.95;;;0.98;;
74291;SDS011;62687;55.738;37.516;2023-05-07T08:10:17;5.85;;;1.08;;
74291;SDS011;62687;55.738;37.516;2023-05-07T08:13:05;2.80;;;1.10;;
74291;SDS011;62687;55.738;37.516;2023-05-07T08:15:50;2.35;;;0.90;;
74291;SDS011;62687;55.738;37.516;2023-05-07T08:18:34;3.38;;;0.55;;
74291;SDS011;62687;55.738;37.516;2023-05-07T08:21:18;4.90;;;0.90;;
74291;SDS011;62687;55.738;37.516;2023-05-07T08:24:02;2.03;;;1.02;;
74291;SDS011;62687;55.738;37.516;2023-05-07T08:26:47;2.47;;;1.17;;
74291;SDS011;62687;55.738;37.516;2023-05-07T08:29:31;3.22;;;0.85;;
74291;SDS011;62687;55.738;37.516;2023-05-07T08:32:15;1.20;;;0.40;;
74291;SDS011;62687;55.738;37.516;2023-05-07T08:35:00;6.80;;;0.82;;
74291;SDS011;62687;55.738;37.516;2023-05-07T08:37:44;3.88;;;0.93;;
74291;SDS011;62687;55.738;37.516;2023-05-07T08:40:28;2.25;;;0.80;;
74291;SDS011;62687;55.738;37.516;2023-05-07T08:45:58;5.45;;;1.05;;
74291;SDS011;62687;55.738;37.516;2023-05-07T08:48:49;2.10;;;0.75;;
74291;SDS011;62687;55.738;37.516;2023-05-07T08:51:34;4.88;;;1.20;;
74291;SDS011;62687;55.738;37.516;2023-05-07T08:54:20;1.73;;;0.77;;
74291;SDS011;62687;55.738;37.516;2023-05-07T08:57:05;2.25;;;0.60;;
74291;SDS011;62687;55.738;37.516;2023-05-07T08:59:50;2.58;;;0.80;;
74291;SDS011;62687;55.738;37.516;2023-05-07T09:02:37;2.05;;;1.02;;
74291;SDS011;62687;55.738;37.516;2023-05-07T09:05:21;6.28;;;1.20;;
74291;SDS011;62687;55.738;37.516;2023-05-07T09:08:06;3.63;;;1.10;;
74291;SDS011;62687;55.738;37.516;2023-05-07T09:10:51;2.80;;;0.75;;
74291;SDS011;62687;55.738;37.516;2023-05-07T09:13:36;3.25;;;1.00;;
74291;SDS011;62687;55.738;37.516;2023-05-07T09:16:21;4.13;;;1.08;;
74291;SDS011;62687;55.738;37.516;2023-05-07T09:19:05;3.92;;;1.30;;
74291;SDS011;62687;55.738;37.516;2023-05-07T09:21:49;1.50;;;0.70;;
74291;SDS011;62687;55.738;37.516;2023-05-07T09:24:41;3.30;;;1.00;;
74291;SDS011;62687;55.738;37.516;2023-05-07T09:27:31;4.95;;;1.10;;
74291;SDS011;62687;55.738;37.516;2023-05-07T09:30:15;7.03;;;1.23;;
74291;SDS011;62687;55.738;37.516;2023-05-07T09:33:00;5.68;;;1.20;;
74291;SDS011;62687;55.738;37.516;2023-05-07T09:35:45;3.97;;;1.05;;
74291;SDS011;62687;55.738;37.516;2023-05-07T09:38:31;5.90;;;0.80;;
74291;SDS011;62687;55.738;37.516;2023-05-07T09:41:16;3.72;;;0.85;;
74291;SDS011;62687;55.738;37.516;2023-05-07T09:44:00;4.07;;;0.90;;
74291;SDS011;62687;55.738;37.516;2023-05-07T09:49:30;3.35;;;1.40;;
74291;SDS011;62687;55.738;37.516;2023-05-07T09:52:18;5.65;;;1.08;;
74291;SDS011;62687;55.738;37.516;2023-05-07T09:55:04;2.78;;;1.00;;
74291;SDS011;62687;55.738;37.516;2023-05-07T09:57:52;2.53;;;1.10;;
74291;SDS011;62687;55.738;37.516;2023-05-07T10:00:37;2.60;;;1.20;;
74291;SDS011;62687;55.738;37.516;2023-05-07T10:03:33;2.70;;;0.90;;
74291;SDS011;62687;55.738;37.516;2023-05-07T10:06:53;1.95;;;0.60;;
74291;SDS011;62687;55.738;37.516;2023-05-07T10:09:44;1.63;;;0.70;;
74291;SDS011;62687;55.738;37.516;2023-05-07T10:13:04;1.60;;;0.70;;
74291;SDS011;62687;55.738;37.516;2023-05-07T10:16:22;2.15;;;0.90;;
74291;SDS011;62687;55.738;37.516;2023-05-07T10:19:08;2.40;;;1.00;;
74291;SDS011;62687;55.738;37.516;2023-05-07T10:21:56;3.53;;;0.82;;
74291;SDS011;62687;55.738;37.516;2023-05-07T10:24:45;1.25;;;0.75;;
74291;SDS011;62687;55.738;37.516;2023-05-07T10:27:32;2.22;;;0.70;;
74291;SDS011;62687;55.738;37.516;2023-05-07T10:30:26;2.28;;;0.73;;
74291;SDS011;62687;55.738;37.516;2023-05-07T10:33:22;0.85;;;0.40;;
74291;SDS011;62687;55.738;37.516;2023-05-07T10:36:10;3.55;;;1.00;;
74291;SDS011;62687;55.738;37.516;2023-05-07T10:38:54;2.90;;;1.52;;
74291;SDS011;62687;55.738;37.516;2023-05-07T10:41:39;1.17;;;0.52;;
74291;SDS011;62687;55.738;37.516;2023-05-07T10:47:15;6.38;;;1.30;;
74291;SDS011;62687;55.738;37.516;2023-05-07T10:50:20;4.78;;;2.13;;
74291;SDS011;62687;55.738;37.516;2023-05-07T11:02:14;5.75;;;2.35;;
74291;SDS011;62687;55.738;37.516;2023-05-07T11:08:05;3.03;;;1.17;;
74291;SDS011;62687;55.738;37.516;2023-05-07T11:10:50;4.25;;;1.83;;
74291;SDS011;62687;55.738;37.516;2023-05-07T11:13:45;3.08;;;1.05;;
74291;SDS011;62687;55.738;37.516;2023-05-07T11:16:31;2.25;;;1.23;;
74291;SDS011;62687;55.738;37.516;2023-05-07T11:19:17;2.17;;;1.08;;
74291;SDS011;62687;55.738;37.516;2023-05-07T11:22:01;4.63;;;1.40;;
74291;SDS011;62687;55.738;37.516;2023-05-07T11:24:46;7.78;;;2.47;;
74291;SDS011;62687;55.738;37.516;2023-05-07T11:27:30;7.95;;;1.90;;
74291;SDS011;62687;55.738;37.516;2023-05-07T11:30:17;8.55;;;2.95;;
74291;SDS011;62687;55.738;37.516;2023-05-07T11:33:04;5.38;;;1.75;;
74291;SDS011;62687;55.738;37.516;2023-05-07T11:35:49;3.10;;;1.88;;
74291;SDS011;62687;55.738;37.516;2023-05-07T11:38:35;4.63;;;1.17;;
74291;SDS011;62687;55.738;37.516;2023-05-07T11:41:22;5.03;;;1.92;;
74291;SDS011;62687;55.738;37.516;2023-05-07T11:44:06;4.60;;;1.70;;
74291;SDS011;62687;55.738;37.516;2023-05-07T11:46:50;3.35;;;1.20;;
74291;SDS011;62687;55.738;37.516;2023-05-07T11:49:34;3.60;;;1.08;;
74291;SDS011;62687;55.738;37.516;2023-05-07T11:52:19;2.67;;;0.88;;
74291;SDS011;62687;55.738;37.516;2023-05-07T11:55:04;7.07;;;1.38;;
74291;SDS011;62687;55.738;37.516;2023-05-07T11:57:49;4.57;;;1.52;;
74291;SDS011;62687;55.738;37.516;2023-05-07T12:00:33;4.43;;;1.55;;
74291;SDS011;62687;55.738;37.516;2023-05-07T12:03:17;6.53;;;1.30;;
74291;SDS011;62687;55.738;37.516;2023-05-07T12:06:07;5.63;;;1.95;;
74291;SDS011;62687;55.738;37.516;2023-05-07T12:08:52;5.32;;;2.53;;
74291;SDS011;62687;55.738;37.516;2023-05-07T12:11:37;5.95;;;1.77;;
74291;SDS011;62687;55.738;37.516;2023-05-07T12:14:26;3.35;;;1.50;;
74291;SDS011;62687;55.738;37.516;2023-05-07T12:17:12;5.15;;;1.08;;
74291;SDS011;62687;55.738;37.516;2023-05-07T12:19:58;4.80;;;1.38;;
74291;SDS011;62687;55.738;37.516;2023-05-07T12:22:42;3.58;;;1.88;;
74291;SDS011;62687;55.738;37.516;2023-05-07T12:25:29;6.60;;;2.30;;
74291;SDS011;62687;55.738;37.516;2023-05-07T12:28:25;7.00;;;1.58;;
74291;SDS011;62687;55.738;37.516;2023-05-07T12:31:09;3.35;;;1.00;;
74291;SDS011;62687;55.738;37.516;2023-05-07T12:33:54;2.47;;;0.80;;
74291;SDS011;62687;55.738;37.516;2023-05-07T12:36:38;3.72;;;1.13;;
74291;SDS011;62687;55.738;37.516;2023-05-07T12:39:23;2.83;;;1.40;;
74291;SDS011;62687;55.738;37.516;2023-05-07T12:42:07;3.70;;;1.08;;
74291;SDS011;62687;55.738;37.516;2023-05-07T12:44:51;4.68;;;1.08;;
74291;SDS011;62687;55.738;37.516;2023-05-07T12:47:36;9.18;;;1.00;;
74291;SDS011;62687;55.738;37.516;2023-05-07T12:50:21;2.67;;;1.40;;
74291;SDS011;62687;55.738;37.516;2023-05-07T12:53:06;7.20;;;1.65;;
74291;SDS011;62687;55.738;37.516;2023-05-07T12:55:55;13.25;;;2.90;;
74291;SDS011;62687;55.738;37.516;2023-05-07T12:58:40;2.60;;;1.42;;
74291;SDS011;62687;55.738;37.516;2023-05-07T13:01:29;4.63;;;1.30;;
74291;SDS011;62687;55.738;37.516;2023-05-07T13:04:17;5.97;;;1.02;;
74291;SDS011;62687;55.738;37.516;2023-05-07T13:07:01;3.17;;;1.00;;
74291;SDS011;62687;55.738;37.516;2023-05-07T13:09:46;3.83;;;1.27;;
74291;SDS011;62687;55.738;37.516;2023-05-07T13:12:32;2.92;;;0.80;;
74291;SDS011;62687;55.738;37.516;2023-05-07T13:15:16;3.20;;;1.05;;
74291;SDS011;62687;55.738;37.516;2023-05-07T13:18:01;3.67;;;1.15;;
74291;SDS011;62687;55.738;37.516;2023-05-07T13:20:46;4.22;;;1.05;;
74291;SDS011;62687;55.738;37.516;2023-05-07T13:23:30;3.35;;;1.27;;
74291;SDS011;62687;55.738;37.516;2023-05-07T13:26:15;3.58;;;0.90;;
74291;SDS011;62687;55.738;37.516;2023-05-07T13:28:59;2.65;;;0.85;;
74291;SDS011;62687;55.738;37.516;2023-05-07T13:31:43;4.30;;;1.08;;
74291;SDS011;62687;55.738;37.516;2023-05-07T13:34:28;3.72;;;1.27;;
74291;SDS011;62687;55.738;37.516;2023-05-07T13:37:12;4.55;;;1.80;;
74291;SDS011;62687;55.738;37.516;2023-05-07T13:39:56;5.43;;;1.65;;
74291;SDS011;62687;55.738;37.516;2023-05-07T13:42:41;3.35;;;1.58;;
74291;SDS011;62687;55.738;37.516;2023-05-07T13:45:25;4.28;;;1.40;;
74291;SDS011;62687;55.738;37.516;2023-05-07T13:50:54;4.07;;;1.13;;
74291;SDS011;62687;55.738;37.516;2023-05-07T13:53:38;2.28;;;1.20;;
74291;SDS011;62687;55.738;37.516;2023-05-07T13:56:23;2.13;;;1.23;;
74291;SDS011;62687;55.738;37.516;2023-05-07T14:02:54;5.25;;;1.48;;
74291;SDS011;62687;55.738;37.516;2023-05-07T14:05:48;15.65;;;6.53;;
74291;SDS011;62687;55.738;37.516;2023-05-07T14:08:32;5.90;;;1.35;;
74291;SDS011;62687;55.738;37.516;2023-05-07T14:11:17;2.85;;;1.05;;
74291;SDS011;62687;55.738;37.516;2023-05-07T14:14:01;3.10;;;1.10;;
74291;SDS011;62687;55.738;37.516;2023-05-07T14:16:45;4.05;;;1.00;;
74291;SDS011;62687;55.738;37.516;2023-05-07T14:19:29;12.02;;;1.75;;
74291;SDS011;62687;55.738;37.516;2023-05-07T14:22:13;6.03;;;1.30;;
74291;SDS011;62687;55.738;37.516;2023-05-07T14:24:59;4.20;;;1.83;;
74291;SDS011;62687;55.738;37.516;2023-05-07T14:27:43;5.50;;;1.77;;
74291;SDS011;62687;55.738;37.516;2023-05-07T14:30:28;3.58;;;1.33;;
74291;SDS011;62687;55.738;37.516;2023-05-07T14:33:12;5.15;;;1.40;;
74291;SDS011;62687;55.738;37.516;2023-05-07T14:35:56;4.88;;;1.15;;
74291;SDS011;62687;55.738;37.516;2023-05-07T14:38:41;8.55;;;3.30;;
74291;SDS011;62687;55.738;37.516;2023-05-07T14:41:25;6.18;;;2.75;;
74291;SDS011;62687;55.738;37.516;2023-05-07T14:44:10;3.10;;;1.20;;
74291;SDS011;62687;55.738;37.516;2023-05-07T14:46:54;2.42;;;1.08;;
74291;SDS011;62687;55.738;37.516;2023-05-07T14:49:38;3.92;;;1.30;;
74291;SDS011;62687;55.738;37.516;2023-05-07T14:52:23;3.38;;;1.48;;
74291;SDS011;62687;55.738;37.516;2023-05-07T14:55:07;4.13;;;1.60;;
74291;SDS011;62687;55.738;37.516;2023-05-07T14:57:52;5.03;;;1.10;;
74291;SDS011;62687;55.738;37.516;2023-05-07T15:00:36;3.80;;;0.98;;
74291;SDS011;62687;55.738;37.516;2023-05-07T15:03:21;4.18;;;1.20;;
74291;SDS011;62687;55.738;37.516;2023-05-07T15:06:05;3.17;;;1.50;;
74291;SDS011;62687;55.738;37.516;2023-05-07T15:08:49;6.72;;;1.60;;
74291;SDS011;62687;55.738;37.516;2023-05-07T15:11:34;3.83;;;2.17;;
74291;SDS011;62687;55.738;37.516;2023-05-07T15:14:18;2.55;;;1.13;;
74291;SDS011;62687;55.738;37.516;2023-05-07T15:17:02;2.65;;;1.20;;
74291;SDS011;62687;55.738;37.516;2023-05-07T15:19:47;5.00;;;1.50;;
74291;SDS011;62687;55.738;37.516;2023-05-07T15:22:31;6.10;;;1.20;;
74291;SDS011;62687;55.738;37.516;2023-05-07T15:25:16;4.95;;;1.85;;
74291;SDS011;62687;55.738;37.516;2023-05-07T15:28:00;2.72;;;1.33;;
74291;SDS011;62687;55.738;37.516;2023-05-07T15:30:45;6.43;;;1.35;;
74291;SDS011;62687;55.738;37.516;2023-05-07T15:33:29;2.35;;;1.17;;
74291;SDS011;62687;55.738;37.516;2023-05-07T15:36:14;3.10;;;1.23;;
74291;SDS011;62687;55.738;37.516;2023-05-07T15:38:58;5.03;;;1.52;;
74291;SDS011;62687;55.738;37.516;2023-05-07T15:41:43;3.40;;;1.30;;
74291;SDS011;62687;55.738;37.516;2023-05-07T15:44:28;5.78;;;1.20;;
74291;SDS011;62687;55.738;37.516;2023-05-07T15:47:14;4.80;;;1.17;;
74291;SDS011;62687;55.738;37.516;2023-05-07T15:49:58;3.25;;;1.20;;
74291;SDS011;62687;55.738;37.516;2023-05-07T15:52:42;2.65;;;1.50;;
74291;SDS011;62687;55.738;37.516;2023-05-07T15:55:28;11.70;;;4.75;;
74291;SDS011;62687;55.738;37.516;2023-05-07T15:58:14;24.83;;;10.75;;
74291;SDS011;62687;55.738;37.516;2023-05-07T16:00:58;9.50;;;2.50;;
74291;SDS011;62687;55.738;37.516;2023-05-07T16:03:43;2.45;;;1.30;;
74291;SDS011;62687;55.738;37.516;2023-05-07T16:06:27;3.05;;;1.35;;
74291;SDS011;62687;55.738;37.516;2023-05-07T16:09:12;6.00;;;1.60;;
74291;SDS011;62687;55.738;37.516;2023-05-07T16:11:58;2.65;;;1.10;;
74291;SDS011;62687;55.738;37.516;2023-05-07T16:14:43;2.95;;;1.27;;
74291;SDS011;62687;55.738;37.516;2023-05-07T16:17:27;3.13;;;1.17;;
74291;SDS011;62687;55.738;37.516;2023-05-07T16:20:11;4.57;;;1.52;;
74291;SDS011;62687;55.738;37.516;2023-05-07T16:22:57;7.70;;;1.65;;
74291;SDS011;62687;55.738;37.516;2023-05-07T16:25:41;6.03;;;2.05;;
74291;SDS011;62687;55.738;37.516;2023-05-07T16:28:25;2.60;;;1.10;;
74291;SDS011;62687;55.738;37.516;2023-05-07T16:31:09;6.07;;;1.20;;
74291;SDS011;62687;55.738;37.516;2023-05-07T16:33:53;3.05;;;1.30;;
74291;SDS011;62687;55.738;37.516;2023-05-07T16:36:37;2.97;;;1.25;;
74291;SDS011;62687;55.738;37.516;2023-05-07T16:39:21;7.55;;;1.25;;
74291;SDS011;62687;55.738;37.516;2023-05-07T16:42:05;9.65;;;3.63;;
74291;SDS011;62687;55.738;37.516;2023-05-07T16:44:49;6.38;;;1.60;;
74291;SDS011;62687;55.738;37.516;2023-05-07T16:47:33;9.05;;;2.42;;
74291;SDS011;62687;55.738;37.516;2023-05-07T16:50:17;7.50;;;2.03;;
74291;SDS011;62687;55.738;37.516;2023-05-07T16:53:01;4.53;;;1.40;;
74291;SDS011;62687;55.738;37.516;2023-05-07T16:55:45;7.07;;;1.30;;
74291;SDS011;62687;55.738;37.516;2023-05-07T16:58:29;5.18;;;1.50;;
74291;SDS011;62687;55.738;37.516;2023-05-07T17:01:13;11.23;;;2.75;;
74291;SDS011;62687;55.738;37.516;2023-05-07T17:03:59;8.63;;;2.47;;
74291;SDS011;62687;55.738;37.516;2023-05-07T17:06:43;8.20;;;3.58;;
74291;SDS011;62687;55.738;37.516;2023-05-07T17:09:28;7.82;;;3.17;;
74291;SDS011;62687;55.738;37.516;2023-05-07T17:12:13;9.82;;;3.53;;